createdAt,value
2017-09-10T00:00:24.754Z,0.1
2017-09-10T00:01:24.429Z,0.1
2017-09-10T00:02:23.599Z,0.1
2017-09-10T00:03:22.521Z,0.1
2017-09-10T00:04:22.324Z,0.1
2017-09-10T00:05:21.499Z,0.1
2017-09-10T00:06:20.797Z,0.1
2017-09-10T00:07:19.596Z,0.1
2017-09-10T00:10:17.555Z,0.1
2017-09-10T00:11:16.858Z,0.1
2017-09-10T00:12:15.909Z,0.1
2017-09-10T00:13:15.078Z,0
2017-09-10T00:14:15.008Z,0
2017-09-10T00:15:13.807Z,0
2017-09-10T00:16:13.112Z,0
2017-09-10T00:17:12.546Z,0
2017-09-10T00:18:12.098Z,0
2017-09-10T00:19:10.894Z,0
2017-09-10T00:20:10.195Z,0
2017-09-10T00:22:08.882Z,0
2017-09-10T00:23:08.053Z,0
2017-09-10T00:25:06.632Z,0
2017-09-10T00:26:05.810Z,0
2017-09-10T00:27:05.228Z,0
2017-09-10T00:28:04.147Z,0
2017-09-10T00:29:03.702Z,0
2017-09-10T00:30:03.010Z,0
2017-09-10T00:31:02.182Z,0
2017-09-10T00:32:01.484Z,0
2017-09-10T00:33:00.537Z,0
2017-09-10T00:33:59.971Z,0
2017-09-10T00:34:59.014Z,0
2017-09-10T00:35:58.195Z,0
2017-09-10T00:36:57.743Z,0
2017-09-10T00:37:56.926Z,0
2017-09-10T00:38:56.228Z,0
2017-09-10T00:39:55.529Z,0
2017-09-10T00:40:54.824Z,0
2017-09-10T00:41:54.253Z,0
2017-09-10T00:42:52.923Z,0
2017-09-10T00:43:52.854Z,0
2017-09-10T00:44:51.523Z,0
2017-09-10T00:45:50.577Z,0
2017-09-10T00:46:50.260Z,0
2017-09-10T00:47:49.676Z,0
2017-09-10T00:48:48.720Z,0
2017-09-10T00:49:19.082Z,0
2017-09-10T00:49:49.565Z,0
2017-09-10T00:50:20.181Z,0
2017-09-10T00:50:51.044Z,0
2017-09-10T00:51:20.900Z,0
2017-09-10T00:52:45.491Z,0
2017-09-10T00:53:45.300Z,0
2017-09-10T00:54:44.634Z,0
2017-09-10T00:55:43.051Z,0
2017-09-10T00:56:42.979Z,0
2017-09-10T00:57:42.410Z,0
2017-09-10T00:58:41.459Z,0
2017-09-10T00:59:40.647Z,0.1
2017-09-10T01:00:39.821Z,0.1
2017-09-10T01:01:38.872Z,0.1
2017-09-10T01:02:38.168Z,0.1
2017-09-10T01:03:37.620Z,0.1
2017-09-10T01:04:36.921Z,0.1
2017-09-10T01:05:35.972Z,0
2017-09-10T01:06:35.268Z,0
2017-09-10T01:07:34.691Z,0
2017-09-10T01:08:33.738Z,0
2017-09-10T01:09:33.038Z,0
2017-09-10T01:10:32.097Z,0
2017-09-10T01:11:31.645Z,0
2017-09-10T01:12:30.945Z,0
2017-09-10T01:13:30.371Z,0
2017-09-10T01:14:29.049Z,0
2017-09-10T01:15:28.726Z,0
2017-09-10T01:16:28.029Z,0
2017-09-10T01:17:27.452Z,0
2017-09-10T01:18:26.508Z,0
2017-09-10T01:19:26.060Z,-0.1
2017-09-10T01:20:24.864Z,0
2017-09-10T01:21:24.072Z,-0.1
2017-09-10T01:22:23.116Z,-0.1
2017-09-10T01:23:22.960Z,-0.1
2017-09-10T01:24:22.111Z,-0.1
2017-09-10T01:25:21.541Z,-0.1
2017-09-10T01:26:20.729Z,-0.1
2017-09-10T01:27:19.648Z,-0.1
2017-09-10T01:28:18.824Z,-0.1
2017-09-10T01:29:18.129Z,-0.1
2017-09-10T01:30:17.052Z,-0.1
2017-09-10T01:31:16.604Z,-0.1
2017-09-10T01:32:15.772Z,0
2017-09-10T01:33:15.574Z,0
2017-09-10T01:34:15.126Z,0
2017-09-10T01:35:13.920Z,0
2017-09-10T01:36:13.218Z,0
2017-09-10T01:37:12.644Z,0
2017-09-10T01:38:11.189Z,0
2017-09-10T01:39:10.871Z,0.1
2017-09-10T01:40:09.915Z,-0.1
2017-09-10T01:41:09.338Z,0
2017-09-10T01:41:39.319Z,0
2017-09-10T01:42:10.059Z,-0.1
2017-09-10T01:42:40.543Z,-0.1
2017-09-10T01:45:06.277Z,0
2017-09-10T01:46:05.449Z,0
2017-09-10T01:49:03.392Z,0
2017-09-10T01:50:02.820Z,0
2017-09-10T01:51:01.619Z,0
2017-09-10T01:52:00.667Z,0
2017-09-10T01:53:00.094Z,0
2017-09-10T01:53:59.895Z,0.1
2017-09-10T01:54:58.560Z,0.1
2017-09-10T01:55:58.368Z,0.1
2017-09-10T01:56:57.789Z,0.1
2017-09-10T01:57:56.585Z,0.1
2017-09-10T01:58:55.628Z,0.1
2017-09-10T01:59:54.677Z,0
2017-09-10T02:00:54.225Z,0.1
2017-09-10T02:01:54.157Z,0
2017-09-10T02:02:52.830Z,0.1
2017-09-10T02:03:52.259Z,0.1
2017-09-10T02:04:51.442Z,0.1
2017-09-10T02:05:50.491Z,0.1
2017-09-10T02:06:49.916Z,0.1
2017-09-10T02:07:49.094Z,0.1
2017-09-10T02:08:48.520Z,0.1
2017-09-10T02:09:47.567Z,0.1
2017-09-10T02:10:46.867Z,0.1
2017-09-10T02:11:46.173Z,0.1
2017-09-10T02:12:45.595Z,0.1
2017-09-10T02:13:45.014Z,0.1
2017-09-10T02:14:14.876Z,0.1
2017-09-10T02:15:43.236Z,0
2017-09-10T02:16:42.563Z,0.1
2017-09-10T02:17:41.988Z,0.1
2017-09-10T02:18:40.785Z,0.1
2017-09-10T02:19:40.584Z,0.1
2017-09-10T02:20:39.378Z,0
2017-09-10T02:21:38.805Z,0
2017-09-10T02:22:37.978Z,0
2017-09-10T02:23:37.277Z,0
2017-09-10T02:24:36.454Z,0.1
2017-09-10T02:25:35.752Z,0.1
2017-09-10T02:26:35.052Z,0.1
2017-09-10T02:27:34.097Z,0.1
2017-09-10T02:28:33.270Z,0.1
2017-09-10T02:29:32.697Z,0.1
2017-09-10T02:30:31.776Z,0.1
2017-09-10T02:31:31.203Z,0.1
2017-09-10T02:32:30.378Z,0.1
2017-09-10T02:33:29.801Z,0.1
2017-09-10T02:34:29.360Z,0.1
2017-09-10T02:35:28.407Z,0.1
2017-09-10T02:36:27.837Z,0.1
2017-09-10T02:37:27.263Z,0.1
2017-09-10T02:38:26.200Z,0.1
2017-09-10T02:39:25.502Z,0.1
2017-09-10T02:40:25.073Z,0.1
2017-09-10T02:41:23.744Z,0.1
2017-09-10T02:42:22.921Z,0.1
2017-09-10T02:43:22.854Z,0.1
2017-09-10T02:44:21.531Z,0.1
2017-09-10T02:45:21.082Z,0.1
2017-09-10T02:46:20.514Z,0.1
2017-09-10T02:47:19.445Z,0.1
2017-09-10T02:48:18.872Z,0.1
2017-09-10T02:49:17.929Z,0.1
2017-09-10T02:50:42.644Z,0.1
2017-09-10T02:50:47.578Z,0.1
2017-09-10T02:51:18.189Z,0.1
2017-09-10T02:52:15.600Z,0.1
2017-09-10T02:53:14.893Z,0.1
2017-09-10T02:54:14.441Z,0.1
2017-09-10T02:55:13.858Z,0
2017-09-10T02:56:12.901Z,0
2017-09-10T02:58:11.073Z,0
2017-09-10T02:59:10.617Z,0
2017-09-10T03:00:09.908Z,0
2017-09-10T03:01:09.193Z,0
2017-09-10T03:02:08.616Z,0
2017-09-10T03:03:07.529Z,0
2017-09-10T03:04:06.949Z,0
2017-09-10T03:05:05.618Z,0
2017-09-10T03:06:05.160Z,0
2017-09-10T03:07:04.570Z,0
2017-09-10T03:08:03.743Z,0
2017-09-10T03:09:02.914Z,0
2017-09-10T03:10:02.083Z,0
2017-09-10T03:11:01.752Z,0
2017-09-10T03:12:00.412Z,0
2017-09-10T03:12:59.706Z,0
2017-09-10T03:13:59.121Z,0
2017-09-10T03:14:58.283Z,0
2017-09-10T03:15:57.452Z,0
2017-09-10T03:16:56.739Z,0
2017-09-10T03:17:55.773Z,0
2017-09-10T03:18:55.440Z,0
2017-09-10T03:19:54.728Z,0
2017-09-10T03:20:53.901Z,0
2017-09-10T03:21:53.437Z,0
2017-09-10T03:22:52.474Z,0
2017-09-10T03:23:51.636Z,0
2017-09-10T03:24:50.799Z,0
2017-09-10T03:25:49.963Z,0
2017-09-10T03:26:49.768Z,0
2017-09-10T03:27:48.678Z,0
2017-09-10T03:28:47.842Z,0
2017-09-10T03:29:47.259Z,0
2017-09-10T03:30:46.817Z,0.1
2017-09-10T03:31:45.600Z,0.1
2017-09-10T03:32:44.768Z,0.1
2017-09-10T03:33:44.054Z,0.1
2017-09-10T03:34:43.225Z,0.1
2017-09-10T03:35:43.017Z,0.1
2017-09-10T03:36:42.185Z,0.2
2017-09-10T03:37:41.473Z,0.1
2017-09-10T03:38:40.390Z,0.1
2017-09-10T03:39:39.805Z,0.2
2017-09-10T03:40:39.224Z,0.2
2017-09-10T03:41:38.512Z,0.1
2017-09-10T03:42:37.677Z,0.2
2017-09-10T03:43:36.594Z,0.2
2017-09-10T03:44:35.763Z,0
2017-09-10T03:45:35.426Z,0
2017-09-10T03:46:34.464Z,0
2017-09-10T03:47:33.879Z,0
2017-09-10T03:49:32.183Z,0
2017-09-10T03:50:31.216Z,0.1
2017-09-10T03:51:30.884Z,0.1
2017-09-10T03:52:30.043Z,0.1
2017-09-10T03:53:29.213Z,0.1
2017-09-10T03:54:28.372Z,0
2017-09-10T03:55:27.785Z,0
2017-09-10T03:56:27.326Z,0.1
2017-09-10T03:57:26.495Z,0.1
2017-09-10T03:58:25.033Z,0.1
2017-09-10T03:59:24.696Z,0.1
2017-09-10T04:00:24.241Z,0.1
2017-09-10T04:01:23.038Z,0.1
2017-09-10T04:02:22.197Z,0.1
2017-09-10T04:03:22.123Z,0.1
2017-09-10T04:04:20.787Z,0.1
2017-09-10T04:05:19.824Z,0.1
2017-09-10T04:06:19.744Z,0.1
2017-09-10T04:07:19.029Z,0.1
2017-09-10T04:08:17.567Z,0.1
2017-09-10T04:09:17.360Z,0.1
2017-09-10T04:10:16.534Z,0.1
2017-09-10T04:11:15.825Z,0.1
2017-09-10T04:12:14.860Z,0.1
2017-09-10T04:13:14.283Z,0.1
2017-09-10T04:14:13.324Z,0.1
2017-09-10T04:15:12.739Z,0
2017-09-10T04:16:12.156Z,0
2017-09-10T04:17:11.189Z,0
2017-09-10T04:18:10.353Z,0
2017-09-10T04:19:09.647Z,0
2017-09-10T04:20:09.139Z,0
2017-09-10T04:21:08.053Z,0
2017-09-10T04:22:07.350Z,0
2017-09-10T04:23:06.633Z,0
2017-09-10T04:24:05.676Z,0
2017-09-10T04:25:04.842Z,0
2017-09-10T04:26:04.645Z,0
2017-09-10T04:27:03.805Z,0
2017-09-10T04:28:03.100Z,0
2017-09-10T04:29:02.262Z,0
2017-09-10T04:30:01.810Z,0
2017-09-10T04:31:00.599Z,0
2017-09-10T04:31:59.886Z,0
2017-09-10T04:32:59.056Z,0
2017-09-10T04:34:57.865Z,0
2017-09-10T04:35:57.271Z,0
2017-09-10T04:36:56.061Z,0
2017-09-10T04:37:55.350Z,0
2017-09-10T04:38:54.514Z,0
2017-09-10T04:39:53.671Z,0
2017-09-10T04:40:53.465Z,0.1
2017-09-10T04:41:52.118Z,0.1
2017-09-10T04:42:51.406Z,0.1
2017-09-10T04:43:51.065Z,0
2017-09-10T04:44:49.851Z,0
2017-09-10T04:46:48.535Z,0
2017-09-10T04:47:47.954Z,0
2017-09-10T04:48:47.363Z,0
2017-09-10T04:49:46.659Z,0.1
2017-09-10T04:50:45.822Z,0.1
2017-09-10T04:51:44.606Z,0.1
2017-09-10T04:52:43.773Z,0.1
2017-09-10T04:53:43.437Z,0
2017-09-10T04:54:42.725Z,0
2017-09-10T04:55:42.272Z,0
2017-09-10T04:56:41.074Z,0
2017-09-10T04:57:40.238Z,0
2017-09-10T04:58:39.661Z,0
2017-09-10T04:59:38.955Z,0
2017-09-10T05:00:37.994Z,0
2017-09-10T05:01:37.281Z,0
2017-09-10T05:02:36.695Z,0
2017-09-10T05:03:36.239Z,0
2017-09-10T05:04:34.901Z,0
2017-09-10T05:05:34.064Z,0
2017-09-10T05:06:33.743Z,0
2017-09-10T05:07:32.530Z,0
2017-09-10T05:08:31.821Z,0
2017-09-10T05:09:31.352Z,0
2017-09-10T05:10:30.775Z,0
2017-09-10T05:11:30.065Z,0
2017-09-10T05:12:28.853Z,0
2017-09-10T05:13:28.009Z,0
2017-09-10T05:14:27.294Z,0
2017-09-10T05:15:26.839Z,0
2017-09-10T05:16:26.004Z,0
2017-09-10T05:17:25.163Z,0
2017-09-10T05:18:24.455Z,0
2017-09-10T05:19:24.007Z,0
2017-09-10T05:20:22.916Z,-0.1
2017-09-10T05:21:22.204Z,0
2017-09-10T05:22:21.749Z,0
2017-09-10T05:23:21.187Z,-0.1
2017-09-10T05:24:20.091Z,-0.1
2017-09-10T05:25:19.379Z,-0.1
2017-09-10T05:26:18.706Z,-0.1
2017-09-10T05:27:17.865Z,-0.1
2017-09-10T05:28:17.026Z,-0.1
2017-09-10T05:30:15.327Z,-0.1
2017-09-10T05:31:14.371Z,-0.1
2017-09-10T05:32:13.538Z,-0.1
2017-09-10T05:33:13.210Z,-0.1
2017-09-10T05:34:12.368Z,-0.1
2017-09-10T05:35:11.658Z,-0.1
2017-09-10T05:36:10.842Z,-0.1
2017-09-10T05:37:10.006Z,-0.1
2017-09-10T05:38:09.293Z,-0.1
2017-09-10T05:39:08.459Z,-0.1
2017-09-10T05:40:07.622Z,0
2017-09-10T05:42:06.306Z,0
2017-09-10T05:43:05.715Z,0
2017-09-10T05:44:05.131Z,0
2017-09-10T05:45:04.049Z,0
2017-09-10T05:46:03.338Z,-0.1
2017-09-10T05:47:02.758Z,0
2017-09-10T05:48:02.176Z,0
2017-09-10T05:49:00.585Z,0
2017-09-10T05:50:00.248Z,0
2017-09-10T05:50:59.416Z,-0.1
2017-09-10T05:51:58.580Z,-0.1
2017-09-10T05:52:57.742Z,-0.1
2017-09-10T05:53:57.530Z,0
2017-09-10T05:54:56.571Z,-0.1
2017-09-10T05:55:55.875Z,-0.1
2017-09-10T05:56:55.041Z,-0.1
2017-09-10T05:57:54.331Z,-0.1
2017-09-10T05:58:54.003Z,-0.1
2017-09-10T05:59:53.165Z,-0.1
2017-09-10T06:00:52.078Z,-0.1
2017-09-10T06:01:51.115Z,-0.1
2017-09-10T06:02:50.527Z,0
2017-09-10T06:03:49.696Z,0
2017-09-10T06:04:49.106Z,0
2017-09-10T06:05:48.270Z,-0.1
2017-09-10T06:06:47.430Z,-0.1
2017-09-10T06:07:46.346Z,-0.1
2017-09-10T06:08:46.138Z,-0.2
2017-09-10T06:09:45.177Z,-0.2
2017-09-10T06:10:44.218Z,-0.1
2017-09-10T06:11:43.886Z,-0.1
2017-09-10T06:13:42.055Z,-0.2
2017-09-10T06:14:41.472Z,-0.2
2017-09-10T06:15:40.759Z,-0.2
2017-09-10T06:16:39.919Z,-0.2
2017-09-10T06:17:39.338Z,-0.1
2017-09-10T06:18:38.757Z,-0.1
2017-09-10T06:19:37.540Z,-0.1
2017-09-10T06:20:37.586Z,-0.2
2017-09-10T06:21:36.381Z,-0.2
2017-09-10T06:22:35.552Z,-0.2
2017-09-10T06:23:34.997Z,-0.3
2017-09-10T06:24:34.383Z,-0.3
2017-09-10T06:25:33.164Z,-0.3
2017-09-10T06:26:32.073Z,-0.3
2017-09-10T06:27:31.742Z,-0.3
2017-09-10T06:28:30.778Z,-0.3
2017-09-10T06:29:30.314Z,-0.3
2017-09-10T06:30:29.603Z,-0.3
2017-09-10T06:31:28.640Z,-0.3
2017-09-10T06:32:28.053Z,-0.3
2017-09-10T06:33:27.342Z,-0.4
2017-09-10T06:34:26.891Z,-0.4
2017-09-10T06:35:25.676Z,-0.4
2017-09-10T06:36:25.087Z,-0.4
2017-09-10T06:37:24.259Z,-0.4
2017-09-10T06:38:23.541Z,-0.4
2017-09-10T06:39:22.713Z,-0.4
2017-09-10T06:40:22.006Z,-0.4
2017-09-10T06:41:21.176Z,-0.3
2017-09-10T06:42:20.605Z,-0.3
2017-09-10T06:43:19.769Z,-0.4
2017-09-10T06:44:19.314Z,-0.5
2017-09-10T06:45:17.978Z,-0.5
2017-09-10T06:46:17.400Z,-0.6
2017-09-10T06:47:16.690Z,-0.7
2017-09-10T06:48:16.232Z,-0.8
2017-09-10T06:49:15.259Z,-0.7
2017-09-10T06:50:14.551Z,-0.8
2017-09-10T06:51:14.088Z,-0.8
2017-09-10T06:52:12.872Z,-0.8
2017-09-10T06:53:11.912Z,-0.8
2017-09-10T06:54:11.966Z,-0.8
2017-09-10T06:55:10.879Z,-0.9
2017-09-10T06:56:10.038Z,-1
2017-09-10T06:58:08.837Z,-1
2017-09-10T06:59:08.001Z,-1
2017-09-10T07:00:07.292Z,-1
2017-09-10T07:01:06.586Z,-1
2017-09-10T07:02:05.915Z,-0.9
2017-09-10T07:03:04.702Z,-0.9
2017-09-10T07:04:04.244Z,-0.9
2017-09-10T07:05:03.402Z,-0.9
2017-09-10T07:06:02.815Z,-1
2017-09-10T07:07:02.367Z,-1
2017-09-10T07:08:01.412Z,-1
2017-09-10T07:09:00.194Z,-1.1
2017-09-10T07:09:59.611Z,-1.1
2017-09-10T07:10:58.897Z,-1.1
2017-09-10T07:11:58.197Z,-1.2
2017-09-10T07:12:57.233Z,-1.1
2017-09-10T07:13:56.525Z,-1.1
2017-09-10T07:14:55.986Z,-1.1
2017-09-10T07:15:55.661Z,-1
2017-09-10T07:16:54.482Z,-1
2017-09-10T07:17:53.738Z,-1
2017-09-10T07:18:53.029Z,-1
2017-09-10T07:19:23.251Z,-1
2017-09-10T07:20:51.857Z,-1.1
2017-09-10T07:21:50.643Z,-1.1
2017-09-10T07:22:49.684Z,-1.1
2017-09-10T07:23:49.514Z,-1.1
2017-09-10T07:24:48.802Z,-1.1
2017-09-10T07:25:47.336Z,-1
2017-09-10T07:26:46.997Z,-1
2017-09-10T07:27:46.532Z,-1
2017-09-10T07:28:45.332Z,-1
2017-09-10T07:29:44.875Z,-1.2
2017-09-10T07:30:44.284Z,-1.1
2017-09-10T07:31:43.366Z,-1.1
2017-09-10T07:32:42.530Z,-1.1
2017-09-10T07:34:41.207Z,-1.1
2017-09-10T07:35:40.656Z,-1.1
2017-09-10T07:36:40.084Z,-1.1
2017-09-10T07:37:38.999Z,-1
2017-09-10T07:38:38.298Z,-1.1
2017-09-10T07:39:37.841Z,-1.1
2017-09-10T07:41:35.889Z,-1.1
2017-09-10T07:43:34.445Z,-1.2
2017-09-10T07:44:33.742Z,-1.2
2017-09-10T07:45:33.031Z,-1.2
2017-09-10T07:46:32.328Z,-1.1
2017-09-10T07:47:31.746Z,-1.1
2017-09-10T07:48:30.662Z,-1.3
2017-09-10T07:49:29.956Z,-1.3
2017-09-10T07:50:29.117Z,-1.6
2017-09-10T07:51:28.027Z,-1.8
2017-09-10T07:52:27.694Z,-2
2017-09-10T07:53:26.858Z,-2.2
2017-09-10T07:54:26.152Z,-2.2
2017-09-10T07:55:25.818Z,-2.3
2017-09-10T07:56:24.608Z,-2.3
2017-09-10T07:57:24.277Z,-2.4
2017-09-10T07:58:23.566Z,-2.4
2017-09-10T07:59:22.733Z,-2.5
2017-09-10T08:00:23.008Z,-2.7
2017-09-10T08:01:21.160Z,-2.7
2017-09-10T08:02:20.587Z,-2.8
2017-09-10T08:03:19.755Z,-2.7
2017-09-10T08:04:19.044Z,-2.8
2017-09-10T08:05:18.467Z,-2.7
2017-09-10T08:06:17.131Z,-2.8
2017-09-10T08:07:16.796Z,-2.8
2017-09-10T08:08:15.960Z,-2.8
2017-09-10T08:09:15.246Z,-2.9
2017-09-10T08:10:14.678Z,-2.9
2017-09-10T08:11:13.971Z,-2.9
2017-09-10T08:12:13.137Z,-3
2017-09-10T08:13:12.684Z,-3.1
2017-09-10T08:14:11.719Z,-3
2017-09-10T08:15:11.021Z,-3
2017-09-10T08:16:10.185Z,-2.8
2017-09-10T08:17:09.469Z,-2.7
2017-09-10T08:18:09.012Z,-2.7
2017-09-10T08:19:07.673Z,-2.7
2017-09-10T08:20:07.339Z,-2.7
2017-09-10T08:21:06.627Z,-2.7
2017-09-10T08:22:05.674Z,-2.7
2017-09-10T08:23:05.212Z,-2.8
2017-09-10T08:24:04.250Z,-2.8
2017-09-10T08:25:03.417Z,-2.9
2017-09-10T08:26:02.712Z,-3
2017-09-10T08:27:02.511Z,-3.1
2017-09-10T08:28:01.166Z,-3.4
2017-09-10T08:29:00.574Z,-3.1
2017-09-10T08:29:59.737Z,-2.9
2017-09-10T08:30:59.278Z,-2.8
2017-09-10T08:31:58.566Z,-2.7
2017-09-10T08:32:57.859Z,-2.7
2017-09-10T08:33:57.143Z,-2.6
2017-09-10T08:34:56.307Z,-2.8
2017-09-10T08:35:55.717Z,-2.9
2017-09-10T08:36:55.392Z,-3.1
2017-09-10T08:38:53.687Z,-2.7
2017-09-10T08:39:52.852Z,-2.8
2017-09-10T08:40:52.015Z,-2.8
2017-09-10T08:41:51.309Z,-2.8
2017-09-10T08:42:50.730Z,-2.7
2017-09-10T08:44:48.780Z,-2.7
2017-09-10T08:45:48.571Z,-2.7
2017-09-10T08:46:47.741Z,-2.8
2017-09-10T08:47:47.032Z,-2.8
2017-09-10T08:48:46.445Z,-2.8
2017-09-10T08:49:45.616Z,-2.8
2017-09-10T08:50:44.916Z,-2.7
2017-09-10T08:51:44.219Z,-2.6
2017-09-10T08:52:43.757Z,-2.6
2017-09-10T08:53:42.799Z,-2.6
2017-09-10T08:54:41.839Z,-2.8
2017-09-10T08:55:41.260Z,-2.8
2017-09-10T08:56:40.300Z,-2.8
2017-09-10T08:57:40.101Z,-2.9
2017-09-10T08:58:39.016Z,-2.9
2017-09-10T08:59:38.433Z,-2.9
2017-09-10T09:00:37.724Z,-2.9
2017-09-10T09:02:36.417Z,-2.7
2017-09-10T09:04:34.846Z,-2.6
2017-09-10T09:05:33.890Z,-2.7
2017-09-10T09:06:33.444Z,-2.6
2017-09-10T09:07:32.622Z,-2.5
2017-09-10T09:08:32.171Z,-2.4
2017-09-10T09:09:31.467Z,-2.4
2017-09-10T09:10:30.508Z,-2.3
2017-09-10T09:11:29.799Z,-2.4
2017-09-10T09:12:28.839Z,-2.2
2017-09-10T09:13:28.514Z,-2.1
2017-09-10T09:14:27.804Z,-2.2
2017-09-10T09:15:27.223Z,-2.2
2017-09-10T09:16:26.514Z,-2.2
2017-09-10T09:17:25.429Z,-2.2
2017-09-10T09:18:24.727Z,-2.1
2017-09-10T09:19:24.017Z,-2.1
2017-09-10T09:20:23.053Z,-2
2017-09-10T09:21:23.126Z,-2.1
2017-09-10T09:22:21.542Z,-2.2
2017-09-10T09:23:21.211Z,-2.1
2017-09-10T09:23:51.813Z,-2.1
2017-09-10T09:25:19.915Z,-2.1
2017-09-10T09:26:18.953Z,-2.1
2017-09-10T09:27:18.372Z,-1.9
2017-09-10T09:29:16.926Z,-1.9
2017-09-10T09:30:16.229Z,-2
2017-09-10T09:31:15.520Z,-1.9
2017-09-10T09:32:14.804Z,-1.8
2017-09-10T09:33:14.219Z,-2
2017-09-10T09:34:13.386Z,-1.8
2017-09-10T09:35:12.677Z,-1.8
2017-09-10T09:36:12.092Z,-1.8
2017-09-10T09:37:11.260Z,-1.8
2017-09-10T09:38:11.070Z,-1.8
2017-09-10T09:39:09.856Z,-1.7
2017-09-10T09:40:09.153Z,-1.7
2017-09-10T09:42:07.709Z,-1.6
2017-09-10T09:43:06.877Z,-1.6
2017-09-10T09:44:06.674Z,-1.5
2017-09-10T09:45:06.091Z,-1.4
2017-09-10T09:46:05.007Z,-1.6
2017-09-10T09:47:04.298Z,-1.5
2017-09-10T09:48:03.337Z,-1.5
2017-09-10T09:49:02.890Z,-1.3
2017-09-10T09:50:02.308Z,-1.3
2017-09-10T09:51:01.604Z,-1.3
2017-09-10T09:52:00.770Z,-1.3
2017-09-10T09:53:00.311Z,-1.3
2017-09-10T09:53:59.474Z,-1.2
2017-09-10T09:54:58.758Z,-1.2
2017-09-10T09:55:58.180Z,-1.1
2017-09-10T09:56:57.345Z,-1.1
2017-09-10T09:57:57.136Z,-1.1
2017-09-10T09:58:56.178Z,-1.1
2017-09-10T09:59:55.596Z,-1
2017-09-10T10:00:55.015Z,-1
2017-09-10T10:01:54.051Z,-1
2017-09-10T10:02:53.342Z,-0.9
2017-09-10T10:03:53.018Z,-0.9
2017-09-10T10:05:51.063Z,-1.1
2017-09-10T10:07:50.121Z,-1.1
2017-09-10T10:08:49.285Z,-1.2
2017-09-10T10:09:48.959Z,-1.3
2017-09-10T10:11:47.136Z,-1.2
2017-09-10T10:12:46.424Z,-1.2
2017-09-10T10:13:45.461Z,-1.2
2017-09-10T10:14:45.005Z,-1.2
2017-09-10T10:16:43.969Z,-1.2
2017-09-10T10:17:43.399Z,-1.2
2017-09-10T10:18:42.697Z,-1.1
2017-09-10T10:19:41.610Z,-1.1
2017-09-10T10:21:40.290Z,-1.1
2017-09-10T10:22:39.582Z,-1
2017-09-10T10:23:38.931Z,-1
2017-09-10T10:24:38.213Z,-1
2017-09-10T10:25:37.374Z,-1
2017-09-10T10:26:36.672Z,-1.1
2017-09-10T10:27:36.209Z,-1.1
2017-09-10T10:28:35.372Z,-1.1
2017-09-10T10:29:34.665Z,-1
2017-09-10T10:30:34.456Z,-0.9
2017-09-10T10:31:33.743Z,-1
2017-09-10T10:32:33.041Z,-0.9
2017-09-10T10:33:31.953Z,-0.9
2017-09-10T10:34:31.750Z,-0.9
2017-09-10T10:36:29.803Z,-1.1
2017-09-10T10:37:29.472Z,-1
2017-09-10T10:38:28.768Z,-0.9
2017-09-10T10:39:28.062Z,-0.9
2017-09-10T10:40:27.621Z,-0.9
2017-09-10T10:41:26.658Z,-0.9
2017-09-10T10:42:26.079Z,-1
2017-09-10T10:43:25.119Z,-0.9
2017-09-10T10:44:24.407Z,-1
2017-09-10T10:45:24.492Z,-0.9
2017-09-10T10:46:23.153Z,-1.1
2017-09-10T10:47:22.700Z,-1
2017-09-10T10:48:21.611Z,-1.1
2017-09-10T10:49:21.280Z,-0.9
2017-09-10T10:50:20.476Z,-0.9
2017-09-10T10:52:19.281Z,-0.7
2017-09-10T10:53:18.697Z,-0.7
2017-09-10T10:54:17.999Z,-0.7
2017-09-10T10:55:17.542Z,-0.8
2017-09-10T10:56:16.322Z,-0.7
2017-09-10T10:57:16.240Z,-0.8
2017-09-10T10:58:15.776Z,-0.8
2017-09-10T10:59:14.742Z,-0.8
2017-09-10T11:00:14.037Z,-0.8
2017-09-10T11:01:13.328Z,-0.8
2017-09-10T11:02:12.744Z,-0.7
2017-09-10T11:03:12.420Z,-0.7
2017-09-10T11:04:11.211Z,-0.7
2017-09-10T11:05:10.506Z,-0.7
2017-09-10T11:06:09.675Z,-0.8
2017-09-10T11:07:09.098Z,-0.6
2017-09-10T11:08:08.409Z,-0.7
2017-09-10T11:09:07.706Z,-0.8
2017-09-10T11:10:07.387Z,-0.7
2017-09-10T11:10:38.122Z,-0.7
2017-09-10T11:11:08.220Z,-0.9
2017-09-10T11:11:38.952Z,-0.9
2017-09-10T11:12:08.934Z,-0.8
2017-09-10T11:12:39.413Z,-0.8
2017-09-10T11:13:10.019Z,-0.8
2017-09-10T11:13:40.124Z,-0.8
2017-09-10T11:15:04.208Z,-1
2017-09-10T11:16:03.121Z,-1
2017-09-10T11:17:02.539Z,-1
2017-09-10T11:18:01.591Z,-1
2017-09-10T11:19:01.263Z,-1
2017-09-10T11:20:00.431Z,-1
2017-09-10T11:20:59.722Z,-1
2017-09-10T11:21:59.262Z,-1
2017-09-10T11:22:58.554Z,-1
2017-09-10T11:23:57.850Z,-0.9
2017-09-10T11:24:57.282Z,-0.8
2017-09-10T11:25:56.320Z,-0.9
2017-09-10T11:26:56.016Z,-0.9
2017-09-10T11:27:55.183Z,-0.8
2017-09-10T11:28:54.225Z,-0.8
2017-09-10T11:29:54.142Z,-0.7
2017-09-10T11:30:53.304Z,-0.8
2017-09-10T11:31:52.347Z,-0.9
2017-09-10T11:32:52.143Z,-0.8
2017-09-10T11:33:51.608Z,-0.7
2017-09-10T11:34:50.526Z,-0.7
2017-09-10T11:35:49.815Z,-0.7
2017-09-10T11:36:49.109Z,-0.7
2017-09-10T11:37:48.397Z,-0.6
2017-09-10T11:38:48.065Z,-0.7
2017-09-10T11:39:47.110Z,-0.6
2017-09-10T11:40:46.773Z,-0.6
2017-09-10T11:41:46.185Z,-0.7
2017-09-10T11:42:45.351Z,-0.7
2017-09-10T11:43:44.644Z,-0.8
2017-09-10T11:45:43.567Z,-1
2017-09-10T11:46:42.728Z,-1.1
2017-09-10T11:47:42.144Z,-1.1
2017-09-10T11:48:41.306Z,-1.1
2017-09-10T11:49:41.102Z,-1.1
2017-09-10T11:50:40.023Z,-1.1
2017-09-10T11:51:39.316Z,-1.1
2017-09-10T11:52:38.358Z,-1.1
2017-09-10T11:53:38.277Z,-1
2017-09-10T11:54:37.319Z,-1
2017-09-10T11:55:37.240Z,-0.9
2017-09-10T11:56:36.148Z,-0.8
2017-09-10T11:58:34.949Z,-0.5
2017-09-10T11:59:34.365Z,-0.4
2017-09-10T12:00:33.790Z,-0.3
2017-09-10T12:01:33.216Z,-0.3
2017-09-10T12:02:32.638Z,-0.3
2017-09-10T12:03:31.928Z,-0.5
2017-09-10T12:04:31.469Z,-0.3
2017-09-10T12:05:30.635Z,-0.3
2017-09-10T12:06:29.803Z,-0.3
2017-09-10T12:07:29.091Z,-0.4
2017-09-10T12:08:28.629Z,-0.3
2017-09-10T12:09:27.797Z,-0.4
2017-09-10T12:10:26.966Z,-0.3
2017-09-10T12:11:26.757Z,-0.2
2017-09-10T12:12:26.049Z,-0.3
2017-09-10T12:13:25.210Z,-0.2
2017-09-10T12:14:24.498Z,-0.1
2017-09-10T12:15:24.417Z,0
2017-09-10T12:16:23.577Z,0.2
2017-09-10T12:17:23.240Z,0.1
2017-09-10T12:18:21.643Z,0.1
2017-09-10T12:19:21.308Z,0.1
2017-09-10T12:20:20.348Z,0.2
2017-09-10T12:22:19.652Z,0.2
2017-09-10T12:23:18.942Z,0.3
2017-09-10T12:24:17.983Z,0.5
2017-09-10T12:25:17.780Z,0.7
2017-09-10T12:26:17.075Z,0.8
2017-09-10T12:27:16.369Z,0.7
2017-09-10T12:28:15.794Z,0.8
2017-09-10T12:29:15.213Z,0.9
2017-09-10T12:30:14.504Z,0.9
2017-09-10T12:31:13.798Z,1
2017-09-10T12:32:13.224Z,1
2017-09-10T12:33:12.386Z,0.9
2017-09-10T12:34:12.052Z,0.9
2017-09-10T12:35:11.471Z,1
2017-09-10T12:36:10.764Z,0.8
2017-09-10T12:37:10.051Z,0.8
2017-09-10T12:38:09.598Z,0.8
2017-09-10T12:39:08.635Z,1
2017-09-10T12:40:08.306Z,1
2017-09-10T12:41:07.596Z,1
2017-09-10T12:42:06.761Z,0.9
2017-09-10T12:43:06.428Z,0.6
2017-09-10T12:44:05.591Z,0.8
2017-09-10T12:45:04.755Z,0.6
2017-09-10T12:47:03.691Z,0.7
2017-09-10T12:48:02.858Z,0.9
2017-09-10T12:49:02.528Z,0.9
2017-09-10T12:50:01.822Z,0.9
2017-09-10T12:51:01.237Z,0.9
2017-09-10T12:52:00.780Z,1
2017-09-10T12:52:59.818Z,1
2017-09-10T12:53:59.106Z,1.2
2017-09-10T12:54:58.771Z,1.3
2017-09-10T12:55:57.930Z,1.2
2017-09-10T12:56:57.728Z,1
2017-09-10T12:57:57.151Z,0.9
2017-09-10T12:58:56.684Z,0.9
2017-09-10T12:59:55.849Z,1.1
2017-09-10T13:00:55.148Z,1.3
2017-09-10T13:01:54.318Z,1.4
2017-09-10T13:02:53.478Z,1.4
2017-09-10T13:03:23.953Z,1.4
2017-09-10T13:03:54.550Z,1.4
2017-09-10T13:05:52.464Z,1.1
2017-09-10T13:06:50.992Z,1.1
2017-09-10T13:07:50.794Z,1
2017-09-10T13:08:49.957Z,1.1
2017-09-10T13:09:49.376Z,1.2
2017-09-10T13:10:49.173Z,1.1
2017-09-10T13:11:47.837Z,1.1
2017-09-10T13:12:47.384Z,1.2
2017-09-10T13:13:47.051Z,1.2
2017-09-10T13:14:46.092Z,1.2
2017-09-10T13:15:45.757Z,1.2
2017-09-10T13:16:45.060Z,1.3
2017-09-10T13:17:44.979Z,0.8
2017-09-10T13:18:43.650Z,0.7
2017-09-10T13:19:43.575Z,0.6
2017-09-10T13:20:42.740Z,0.6
2017-09-10T13:21:41.903Z,0.7
2017-09-10T13:22:41.199Z,0.7
2017-09-10T13:23:41.118Z,0.6
2017-09-10T13:24:40.536Z,0.7
2017-09-10T13:25:39.716Z,0.7
2017-09-10T13:26:38.876Z,0.8
2017-09-10T13:27:38.030Z,0.9
2017-09-10T13:28:37.819Z,1
2017-09-10T13:29:37.356Z,1.2
2017-09-10T13:30:36.398Z,1.3
2017-09-10T13:31:35.686Z,1.4
2017-09-10T13:32:35.223Z,1.3
2017-09-10T13:33:34.262Z,1.4
2017-09-10T13:34:34.057Z,1.6
2017-09-10T13:35:33.223Z,1.6
2017-09-10T13:36:33.022Z,1.6
2017-09-10T13:37:32.317Z,1.6
2017-09-10T13:38:31.858Z,1.7
2017-09-10T13:39:31.146Z,1.8
2017-09-10T13:40:30.558Z,1.9
2017-09-10T13:41:29.855Z,2
2017-09-10T13:42:29.017Z,2
2017-09-10T13:43:28.807Z,2.1
2017-09-10T13:44:28.225Z,2.3
2017-09-10T13:45:27.645Z,2.3
2017-09-10T13:46:26.940Z,2.3
2017-09-10T13:47:26.227Z,2.1
2017-09-10T13:48:25.643Z,1.9
2017-09-10T13:49:24.942Z,1.8
2017-09-10T13:50:24.362Z,1.8
2017-09-10T13:51:23.909Z,1.9
2017-09-10T13:52:23.458Z,2.1
2017-09-10T13:53:22.499Z,2.3
2017-09-10T13:54:22.078Z,2.4
2017-09-10T13:55:21.369Z,2.3
2017-09-10T13:56:20.657Z,1.9
2017-09-10T13:57:20.575Z,1.9
2017-09-10T13:58:19.611Z,1.9
2017-09-10T13:59:19.028Z,1.9
2017-09-10T14:00:18.188Z,1.9
2017-09-10T14:01:18.107Z,2
2017-09-10T14:02:17.396Z,2.1
2017-09-10T14:03:17.377Z,2.1
2017-09-10T14:04:15.907Z,2
2017-09-10T14:05:15.949Z,2.1
2017-09-10T14:06:14.870Z,2.3
2017-09-10T14:07:14.412Z,2.3
2017-09-10T14:07:44.519Z,2.3